Time;durP1;ratioP1;P1;durP2;ratioP2;P2;SDS_P1;SDS_P2;PMS_P1;PMS_P2;Temp;Humidity;BMP_temperature;BMP_pressure;BME280_temperature;BME280_humidity;BME280_pressure;Samples;Min_cycle;Max_cycle;Signal;HPM_P1;HPM_P2
2021/03/03 00:02:14;;;;;;;50.10;24.83;;;;;;;;;;5017543;28;20590;-67
2021/03/03 00:04:40;;;;;;;51.13;25.48;;;;;;;;;;5024135;28;20030;-67
2021/03/03 00:07:06;;;;;;;61.80;25.08;;;;;;;;;;5021486;28;20078;-67
2021/03/03 00:09:32;;;;;;;52.63;26.60;;;;;;;;;;5022572;28;20128;-67
2021/03/03 00:11:58;;;;;;;52.78;25.88;;;;;;;;;;5022536;28;20026;-67
2021/03/03 00:14:24;;;;;;;47.22;24.50;;;;;;;;;;5023026;28;20022;-68
2021/03/03 00:16:50;;;;;;;56.58;28.02;;;;;;;;;;5026682;28;20021;-68
2021/03/03 00:19:16;;;;;;;57.60;26.48;;;;;;;;;;5019165;28;20033;-68
2021/03/03 00:21:42;;;;;;;51.60;25.48;;;;;;;;;;5023015;28;20017;-67
2021/03/03 00:24:08;;;;;;;53.28;26.95;;;;;;;;;;5021069;28;20017;-67
2021/03/03 00:26:34;;;;;;;58.10;28.38;;;;;;;;;;5027752;28;20029;-67
2021/03/03 00:29:00;;;;;;;75.72;32.05;;;;;;;;;;5029605;28;20036;-67
2021/03/03 00:31:26;;;;;;;72.60;32.45;;;;;;;;;;5023451;28;20026;-67
2021/03/03 00:33:52;;;;;;;70.57;32.20;;;;;;;;;;5027450;28;20025;-67
2021/03/03 00:36:18;;;;;;;70.38;31.58;;;;;;;;;;5026024;28;20018;-67
2021/03/03 00:38:44;;;;;;;67.35;31.80;;;;;;;;;;5024989;28;20087;-67
2021/03/03 00:41:10;;;;;;;73.28;32.97;;;;;;;;;;5027932;28;20488;-68
2021/03/03 00:43:36;;;;;;;63.80;29.48;;;;;;;;;;5028866;28;20037;-67
2021/03/03 00:46:03;;;;;;;71.15;33.95;;;;;;;;;;5028049;28;20057;-67
2021/03/03 00:48:29;;;;;;;76.18;33.80;;;;;;;;;;5025721;28;20147;-68
2021/03/03 00:50:55;;;;;;;68.32;33.42;;;;;;;;;;5022088;28;20105;-67
2021/03/03 00:53:21;;;;;;;73.30;32.45;;;;;;;;;;5025799;28;20049;-67
2021/03/03 00:55:51;;;;;;;80.00;33.35;;;;;;;;;;5029426;28;20021;-68
2021/03/03 00:58:17;;;;;;;84.35;35.42;;;;;;;;;;5028845;28;20029;-68
2021/03/03 01:00:43;;;;;;;66.22;31.30;;;;;;;;;;5028099;28;20020;-68
2021/03/03 01:03:09;;;;;;;67.53;30.52;;;;;;;;;;5025890;28;20021;-67
2021/03/03 01:05:35;;;;;;;71.35;33.15;;;;;;;;;;5025713;28;20029;-67
2021/03/03 01:08:02;;;;;;;71.07;31.83;;;;;;;;;;5022526;28;20041;-67
2021/03/03 01:10:28;;;;;;;73.25;33.92;;;;;;;;;;5020822;28;20511;-67
2021/03/03 01:12:54;;;;;;;71.50;32.33;;;;;;;;;;5028636;28;20492;-68
2021/03/03 01:15:20;;;;;;;60.33;29.13;;;;;;;;;;5021059;28;20105;-67
2021/03/03 01:17:46;;;;;;;67.35;31.95;;;;;;;;;;5019756;28;20017;-67
2021/03/03 01:20:12;;;;;;;63.55;30.83;;;;;;;;;;5019399;28;20033;-67
2021/03/03 01:22:38;;;;;;;65.90;29.48;;;;;;;;;;5019804;28;20017;-67
2021/03/03 01:25:05;;;;;;;66.03;29.85;;;;;;;;;;5025059;28;20105;-68
2021/03/03 01:27:31;;;;;;;59.42;27.83;;;;;;;;;;5021955;28;20032;-68
2021/03/03 01:29:57;;;;;;;61.50;28.38;;;;;;;;;;5017191;28;20022;-67
2021/03/03 01:32:23;;;;;;;60.22;27.80;;;;;;;;;;5023082;28;20030;-67
2021/03/03 01:34:49;;;;;;;54.28;26.50;;;;;;;;;;5031158;28;20068;-69
2021/03/03 01:37:15;;;;;;;58.97;28.25;;;;;;;;;;5024944;28;20025;-68
2021/03/03 01:39:41;;;;;;;61.90;28.85;;;;;;;;;;5017473;28;20014;-67
2021/03/03 01:42:07;;;;;;;68.32;31.25;;;;;;;;;;5019658;28;20021;-67
2021/03/03 01:44:33;;;;;;;69.32;30.10;;;;;;;;;;5021233;28;20136;-67
2021/03/03 01:46:59;;;;;;;63.63;29.23;;;;;;;;;;5022642;28;20049;-68
2021/03/03 01:49:25;;;;;;;57.22;26.45;;;;;;;;;;5028855;28;20479;-67
2021/03/03 01:51:51;;;;;;;59.78;28.13;;;;;;;;;;5027285;28;20037;-67
2021/03/03 01:54:17;;;;;;;56.25;27.27;;;;;;;;;;5019536;28;20052;-67
2021/03/03 01:56:44;;;;;;;58.13;26.10;;;;;;;;;;5026149;28;20025;-67
2021/03/03 01:59:10;;;;;;;61.08;27.52;;;;;;;;;;5016287;28;20030;-68
2021/03/03 02:01:36;;;;;;;60.50;28.80;;;;;;;;;;5018405;28;20484;-68
2021/03/03 02:04:04;;;;;;;57.00;26.67;;;;;;;;;;5021430;28;20080;-68
2021/03/03 02:06:34;;;;;;;61.05;27.15;;;;;;;;;;5028191;28;20097;-67
2021/03/03 02:09:23;;;;;;;57.10;27.17;;;;;;;;;;5018852;28;20045;-68
2021/03/03 02:12:18;;;;;;;55.70;26.48;;;;;;;;;;5026151;28;20026;-67
2021/03/03 02:14:49;;;;;;;56.47;26.00;;;;;;;;;;5023027;28;20038;-68
2021/03/03 02:17:15;;;;;;;57.58;27.17;;;;;;;;;;5023803;28;20029;-67
2021/03/03 02:19:42;;;;;;;60.42;28.00;;;;;;;;;;5022681;28;20021;-67
2021/03/03 02:22:22;;;;;;;61.75;26.73;;;;;;;;;;5018912;28;20033;-67
2021/03/03 02:24:51;;;;;;;60.72;27.63;;;;;;;;;;5017966;28;20037;-67
2021/03/03 02:27:18;;;;;;;60.92;28.17;;;;;;;;;;5025562;28;20741;-67
2021/03/03 02:29:44;;;;;;;59.65;28.27;;;;;;;;;;5018347;28;20075;-68
2021/03/03 02:32:10;;;;;;;62.83;28.40;;;;;;;;;;5024634;28;20025;-67
2021/03/03 02:34:38;;;;;;;64.32;28.73;;;;;;;;;;5036880;28;20124;-69
2021/03/03 02:37:04;;;;;;;63.08;29.30;;;;;;;;;;5027518;28;20446;-67
2021/03/03 02:39:31;;;;;;;60.72;29.45;;;;;;;;;;5024957;28;20037;-67
2021/03/03 02:41:58;;;;;;;61.10;29.98;;;;;;;;;;5016318;28;20029;-67
2021/03/03 02:44:26;;;;;;;72.40;33.10;;;;;;;;;;5025118;28;20022;-68
2021/03/03 02:46:52;;;;;;;61.63;28.77;;;;;;;;;;5021482;28;20018;-67
2021/03/03 02:49:20;;;;;;;51.92;27.10;;;;;;;;;;5022792;28;20044;-67
2021/03/03 02:51:46;;;;;;;49.10;26.33;;;;;;;;;;5027896;28;20018;-68
2021/03/03 02:54:13;;;;;;;42.78;24.20;;;;;;;;;;5020944;28;20025;-67
2021/03/03 02:56:39;;;;;;;54.78;25.95;;;;;;;;;;5021580;28;20057;-68
2021/03/03 02:59:14;;;;;;;53.70;23.38;;;;;;;;;;5020348;28;20480;-67
2021/03/03 03:01:41;;;;;;;50.03;21.35;;;;;;;;;;5020848;28;20084;-68
2021/03/03 03:04:10;;;;;;;42.08;20.13;;;;;;;;;;5024694;28;20032;-68
2021/03/03 03:06:37;;;;;;;29.55;19.23;;;;;;;;;;5021588;28;20692;-67
2021/03/03 03:09:08;;;;;;;38.83;20.05;;;;;;;;;;5015265;28;20335;-68
2021/03/03 03:11:36;;;;;;;31.23;17.87;;;;;;;;;;5027995;28;20108;-68
2021/03/03 03:14:05;;;;;;;26.70;18.25;;;;;;;;;;5032066;28;20117;-68
2021/03/03 03:16:32;;;;;;;30.23;18.92;;;;;;;;;;5024557;28;20037;-67
2021/03/03 03:18:59;;;;;;;31.75;18.73;;;;;;;;;;5019910;28;20053;-68
2021/03/03 03:21:26;;;;;;;26.92;17.27;;;;;;;;;;5024466;28;20032;-68
2021/03/03 03:23:53;;;;;;;32.63;20.02;;;;;;;;;;5029201;28;20112;-68
2021/03/03 03:26:20;;;;;;;31.17;18.65;;;;;;;;;;5019733;28;20041;-68
2021/03/03 03:28:46;;;;;;;42.30;18.35;;;;;;;;;;5020531;28;20528;-67
2021/03/03 03:31:12;;;;;;;35.17;19.85;;;;;;;;;;5014155;28;20404;-68
2021/03/03 03:33:38;;;;;;;32.65;19.75;;;;;;;;;;5012600;28;20026;-68
2021/03/03 03:36:05;;;;;;;36.15;19.85;;;;;;;;;;5019486;28;20026;-68
2021/03/03 03:38:31;;;;;;;34.13;20.35;;;;;;;;;;5026547;28;20025;-68
2021/03/03 03:40:59;;;;;;;39.35;21.35;;;;;;;;;;5020597;28;20030;-68
2021/03/03 03:43:26;;;;;;;33.22;19.95;;;;;;;;;;5020418;28;20509;-68
2021/03/03 03:45:53;;;;;;;42.75;22.70;;;;;;;;;;5023831;28;20022;-68
2021/03/03 03:48:19;;;;;;;40.33;21.38;;;;;;;;;;5017312;28;20029;-68
2021/03/03 03:50:46;;;;;;;40.90;22.65;;;;;;;;;;5028882;28;20022;-68
2021/03/03 03:53:12;;;;;;;33.00;21.83;;;;;;;;;;5019701;28;20038;-68
2021/03/03 03:55:38;;;;;;;34.13;22.45;;;;;;;;;;5022555;28;20033;-68
2021/03/03 03:58:05;;;;;;;39.20;22.77;;;;;;;;;;5021421;28;20018;-68
2021/03/03 04:00:32;;;;;;;34.28;22.65;;;;;;;;;;5015772;28;20017;-68
2021/03/03 04:02:58;;;;;;;39.67;23.77;;;;;;;;;;5020597;28;20026;-68
2021/03/03 04:05:24;;;;;;;38.80;24.38;;;;;;;;;;5030169;28;20057;-68
2021/03/03 04:07:51;;;;;;;36.67;23.15;;;;;;;;;;5023625;28;20029;-68
2021/03/03 04:10:18;;;;;;;43.78;23.75;;;;;;;;;;5021114;28;20058;-68
2021/03/03 04:12:44;;;;;;;49.75;26.67;;;;;;;;;;5032581;28;20476;-68
2021/03/03 04:15:11;;;;;;;38.90;23.77;;;;;;;;;;5026432;28;20488;-68
2021/03/03 04:17:38;;;;;;;42.13;25.17;;;;;;;;;;5030098;28;20025;-68
2021/03/03 04:20:05;;;;;;;37.63;23.70;;;;;;;;;;5018680;28;20079;-68
2021/03/03 04:22:31;;;;;;;35.00;23.52;;;;;;;;;;5034242;28;20041;-68
2021/03/03 04:24:57;;;;;;;39.90;23.08;;;;;;;;;;5030794;28;20022;-68
2021/03/03 04:27:23;;;;;;;39.70;23.38;;;;;;;;;;5024115;28;20033;-68
2021/03/03 04:29:49;;;;;;;45.58;25.25;;;;;;;;;;5024112;28;20132;-68
2021/03/03 04:32:15;;;;;;;33.63;22.00;;;;;;;;;;5030908;28;20029;-68
2021/03/03 04:34:41;;;;;;;37.72;23.48;;;;;;;;;;5023271;28;20022;-68
2021/03/03 04:37:08;;;;;;;39.53;23.70;;;;;;;;;;5020794;28;20030;-68
2021/03/03 04:39:34;;;;;;;37.80;21.88;;;;;;;;;;5019467;28;20030;-68
2021/03/03 04:42:00;;;;;;;39.20;23.70;;;;;;;;;;5029402;28;20035;-68
2021/03/03 04:44:26;;;;;;;52.03;26.67;;;;;;;;;;5017433;28;20196;-68
2021/03/03 04:46:52;;;;;;;42.25;26.92;;;;;;;;;;5025840;28;20351;-68
2021/03/03 04:49:18;;;;;;;47.67;26.00;;;;;;;;;;5030006;28;20158;-68
2021/03/03 04:51:44;;;;;;;44.70;26.48;;;;;;;;;;5030413;28;20149;-68
2021/03/03 04:54:10;;;;;;;40.88;24.98;;;;;;;;;;5026973;28;20613;-68
2021/03/03 04:56:36;;;;;;;41.28;24.15;;;;;;;;;;5026578;28;20559;-68
2021/03/03 04:59:02;;;;;;;42.60;25.90;;;;;;;;;;5031340;28;20476;-68
2021/03/03 05:01:28;;;;;;;49.33;27.67;;;;;;;;;;5020637;28;20029;-68
2021/03/03 05:03:54;;;;;;;46.00;25.77;;;;;;;;;;5035800;28;20029;-68
2021/03/03 05:06:20;;;;;;;48.40;27.70;;;;;;;;;;5024186;28;20036;-68
2021/03/03 05:08:46;;;;;;;49.47;28.02;;;;;;;;;;5023699;28;20033;-68
2021/03/03 05:11:12;;;;;;;60.05;28.02;;;;;;;;;;5033708;28;20057;-68
2021/03/03 05:13:38;;;;;;;66.22;27.65;;;;;;;;;;5032551;28;20514;-68
2021/03/03 05:16:05;;;;;;;49.53;29.13;;;;;;;;;;5041846;28;20026;-68
2021/03/03 05:18:31;;;;;;;61.03;29.20;;;;;;;;;;5023699;28;20691;-68
2021/03/03 05:20:57;;;;;;;53.22;28.63;;;;;;;;;;5034350;28;20083;-68
2021/03/03 05:23:30;;;;;;;95.32;35.22;;;;;;;;;;5023520;28;20402;-68
2021/03/03 05:25:56;;;;;;;56.97;32.45;;;;;;;;;;5026506;28;20104;-68
2021/03/03 05:28:22;;;;;;;63.92;34.53;;;;;;;;;;5024724;28;20029;-68
2021/03/03 05:30:48;;;;;;;71.10;33.97;;;;;;;;;;5020724;28;20112;-68
2021/03/03 05:33:24;;;;;;;60.58;34.58;;;;;;;;;;5030186;28;20033;-68
2021/03/03 05:35:50;;;;;;;62.92;35.88;;;;;;;;;;5024531;28;20124;-68
2021/03/03 05:38:16;;;;;;;62.05;35.50;;;;;;;;;;5017964;28;20022;-68
2021/03/03 05:40:44;;;;;;;105.72;42.60;;;;;;;;;;5025054;28;20030;-69
2021/03/03 05:43:10;;;;;;;62.13;35.67;;;;;;;;;;5027904;28;20033;-68
2021/03/03 05:45:37;;;;;;;122.15;44.13;;;;;;;;;;5028123;28;20029;-69
2021/03/03 05:48:04;;;;;;;101.63;44.53;;;;;;;;;;5024835;28;20145;-69
2021/03/03 05:50:31;;;;;;;102.88;38.10;;;;;;;;;;5023808;28;20104;-69
2021/03/03 05:52:57;;;;;;;92.10;37.25;;;;;;;;;;5025990;28;20030;-69
2021/03/03 05:55:23;;;;;;;68.78;38.65;;;;;;;;;;5027255;28;20038;-68
2021/03/03 05:57:49;;;;;;;73.95;39.55;;;;;;;;;;5022069;28;20018;-69
2021/03/03 06:00:16;;;;;;;84.78;41.03;;;;;;;;;;5023842;28;20495;-69
2021/03/03 06:02:42;;;;;;;82.43;40.65;;;;;;;;;;5030839;28;20025;-69
2021/03/03 06:05:10;;;;;;;89.70;41.35;;;;;;;;;;5027899;28;20602;-69
2021/03/03 06:07:37;;;;;;;68.35;37.92;;;;;;;;;;5019063;28;20034;-69
2021/03/03 06:10:05;;;;;;;73.40;40.92;;;;;;;;;;5028156;28;20053;-69
2021/03/03 06:12:31;;;;;;;94.63;41.03;;;;;;;;;;5028651;28;20076;-69
2021/03/03 06:14:58;;;;;;;83.45;42.00;;;;;;;;;;5031442;28;20021;-68
2021/03/03 06:17:24;;;;;;;116.50;49.20;;;;;;;;;;5028758;28;20029;-68
2021/03/03 06:19:50;;;;;;;101.65;44.17;;;;;;;;;;5025437;28;20092;-69
2021/03/03 06:22:22;;;;;;;109.50;47.55;;;;;;;;;;5023019;28;20408;-69
2021/03/03 06:24:49;;;;;;;123.75;50.10;;;;;;;;;;5027941;28;20033;-69
2021/03/03 06:27:15;;;;;;;107.72;47.78;;;;;;;;;;5034886;28;20026;-69
2021/03/03 06:29:41;;;;;;;102.10;45.13;;;;;;;;;;5026279;28;20022;-69
2021/03/03 06:32:07;;;;;;;132.93;50.55;;;;;;;;;;5029325;28;20043;-69
2021/03/03 06:34:33;;;;;;;134.73;49.42;;;;;;;;;;5035432;28;20527;-69
2021/03/03 06:37:04;;;;;;;120.43;48.20;;;;;;;;;;5031314;28;20026;-69
2021/03/03 06:39:31;;;;;;;72.80;41.28;;;;;;;;;;5030294;28;20017;-69
2021/03/03 06:41:59;;;;;;;153.55;53.10;;;;;;;;;;5029239;28;20022;-68
2021/03/03 06:44:25;;;;;;;191.98;62.25;;;;;;;;;;5028990;28;20018;-69
2021/03/03 06:47:01;;;;;;;96.28;46.47;;;;;;;;;;5024553;28;21301;-68
2021/03/03 06:49:28;;;;;;;191.68;58.85;;;;;;;;;;5023275;28;20021;-68
2021/03/03 06:51:54;;;;;;;163.68;63.20;;;;;;;;;;5024393;28;20032;-68
2021/03/03 06:54:21;;;;;;;114.20;51.83;;;;;;;;;;5021586;28;20033;-68
2021/03/03 06:56:49;;;;;;;114.10;53.15;;;;;;;;;;5020588;28;20601;-69
2021/03/03 06:59:15;;;;;;;160.75;58.65;;;;;;;;;;5014029;28;20028;-68
2021/03/03 07:01:41;;;;;;;135.13;55.95;;;;;;;;;;5023185;28;20021;-68
2021/03/03 07:04:26;;;;;;;137.90;57.20;;;;;;;;;;5027763;28;20106;-69
2021/03/03 07:06:53;;;;;;;96.03;49.95;;;;;;;;;;5016598;28;20080;-69
2021/03/03 07:09:20;;;;;;;96.82;51.97;;;;;;;;;;5019714;28;20056;-68
2021/03/03 07:11:46;;;;;;;93.68;50.65;;;;;;;;;;5013902;28;20404;-68
2021/03/03 07:14:16;;;;;;;97.25;49.97;;;;;;;;;;5023015;28;20630;-68
2021/03/03 07:17:01;;;;;;;93.47;52.22;;;;;;;;;;5031102;28;20032;-69
2021/03/03 07:19:27;;;;;;;151.93;60.92;;;;;;;;;;5029024;28;20059;-68
2021/03/03 07:21:53;;;;;;;199.27;70.50;;;;;;;;;;5025365;28;20084;-69
2021/03/03 07:24:20;;;;;;;247.68;74.53;;;;;;;;;;5037789;28;20025;-69
2021/03/03 07:26:47;;;;;;;179.45;67.20;;;;;;;;;;5028752;28;20017;-68
2021/03/03 07:29:14;;;;;;;238.07;73.22;;;;;;;;;;5019861;28;20036;-68
2021/03/03 07:31:40;;;;;;;271.73;78.50;;;;;;;;;;5019747;28;20407;-68
2021/03/03 07:34:07;;;;;;;109.18;54.58;;;;;;;;;;5027132;28;20507;-68
2021/03/03 07:36:37;;;;;;;208.13;73.10;;;;;;;;;;5021223;28;20441;-68
2021/03/03 07:39:12;;;;;;;268.95;81.50;;;;;;;;;;5022696;28;20032;-68
2021/03/03 07:41:42;;;;;;;198.43;73.93;;;;;;;;;;5016002;28;20558;-68
2021/03/03 07:44:10;;;;;;;285.05;85.40;;;;;;;;;;5024607;28;20036;-68
2021/03/03 07:46:38;;;;;;;341.20;95.28;;;;;;;;;;5021214;28;20039;-68
2021/03/03 07:49:05;;;;;;;284.65;84.68;;;;;;;;;;5023685;28;20021;-68
2021/03/03 07:51:31;;;;;;;209.32;80.30;;;;;;;;;;5021909;28;20026;-68
2021/03/03 07:53:57;;;;;;;191.77;73.32;;;;;;;;;;5027205;28;20053;-68
2021/03/03 07:56:24;;;;;;;222.18;79.63;;;;;;;;;;5017412;28;20030;-68
2021/03/03 07:58:50;;;;;;;209.80;76.90;;;;;;;;;;5022789;28;20017;-68
2021/03/03 08:01:17;;;;;;;338.50;98.95;;;;;;;;;;5018387;28;20030;-68
2021/03/03 08:03:44;;;;;;;198.13;78.05;;;;;;;;;;5019544;28;20025;-68
2021/03/03 08:06:35;;;;;;;222.63;83.13;;;;;;;;;;5020633;28;20022;-68
2021/03/03 08:09:07;;;;;;;240.48;83.90;;;;;;;;;;5017409;28;20120;-68
2021/03/03 08:11:34;;;;;;;281.63;90.60;;;;;;;;;;5024774;28;20072;-68
2021/03/03 08:14:01;;;;;;;212.40;80.22;;;;;;;;;;5017937;28;20030;-68
2021/03/03 08:16:27;;;;;;;253.75;84.45;;;;;;;;;;5016847;28;20495;-68
2021/03/03 08:18:54;;;;;;;266.00;83.72;;;;;;;;;;5012476;28;20792;-67
2021/03/03 08:21:25;;;;;;;222.43;81.80;;;;;;;;;;5026404;28;20030;-68
2021/03/03 08:23:57;;;;;;;316.55;101.30;;;;;;;;;;5036617;28;20032;-68
2021/03/03 08:26:23;;;;;;;270.27;90.25;;;;;;;;;;5032759;28;20076;-68
2021/03/03 08:28:50;;;;;;;168.07;76.93;;;;;;;;;;5017344;28;20022;-68
2021/03/03 08:31:21;;;;;;;180.90;74.10;;;;;;;;;;5024554;28;20033;-68
2021/03/03 08:33:50;;;;;;;211.90;81.78;;;;;;;;;;5029363;28;20025;-68
2021/03/03 08:36:22;;;;;;;232.68;82.65;;;;;;;;;;5022698;28;20025;-68
2021/03/03 08:38:54;;;;;;;161.85;68.97;;;;;;;;;;5025198;28;20041;-68
2021/03/03 08:41:27;;;;;;;163.40;68.70;;;;;;;;;;5029216;28;20033;-68
2021/03/03 08:43:59;;;;;;;159.02;70.82;;;;;;;;;;5025703;28;20079;-68
2021/03/03 08:46:25;;;;;;;;;;;;;;;;;;5017633;28;20487;-68
2021/03/03 08:48:54;;;;;;;131.48;65.30;;;;;;;;;;5025893;28;19932;-68
2021/03/03 08:51:30;;;;;;;154.00;68.20;;;;;;;;;;5031976;28;20029;-68
2021/03/03 08:53:57;;;;;;;156.75;70.53;;;;;;;;;;5024546;28;20033;-68
2021/03/03 08:56:41;;;;;;;163.48;70.32;;;;;;;;;;5031781;28;20033;-68
2021/03/03 08:59:07;;;;;;;164.05;74.18;;;;;;;;;;5027273;28;20021;-68
2021/03/03 09:01:55;;;;;;;161.75;72.03;;;;;;;;;;5029559;28;20113;-68
2021/03/03 09:04:22;;;;;;;174.13;76.72;;;;;;;;;;5024649;28;20115;-68
2021/03/03 09:06:50;;;;;;;219.73;81.80;;;;;;;;;;5017653;28;20570;-68
2021/03/03 09:09:16;;;;;;;182.20;74.80;;;;;;;;;;5026209;28;20044;-68
2021/03/03 09:11:43;;;;;;;202.45;80.20;;;;;;;;;;5032252;28;20179;-68
2021/03/03 09:14:09;;;;;;;259.92;91.20;;;;;;;;;;5032079;28;20030;-68
2021/03/03 09:16:51;;;;;;;258.98;92.88;;;;;;;;;;5032218;28;20467;-68
2021/03/03 09:19:17;;;;;;;257.73;90.93;;;;;;;;;;5024672;28;20491;-68
2021/03/03 09:21:43;;;;;;;225.35;85.07;;;;;;;;;;5024030;28;20480;-68
2021/03/03 09:24:10;;;;;;;243.18;88.00;;;;;;;;;;5024886;28;20021;-68
2021/03/03 09:26:37;;;;;;;258.73;94.57;;;;;;;;;;5026799;28;20033;-68
2021/03/03 09:29:03;;;;;;;233.77;88.13;;;;;;;;;;5018327;28;20053;-68
2021/03/03 09:31:30;;;;;;;201.77;81.10;;;;;;;;;;5040645;28;20031;-68
2021/03/03 09:33:58;;;;;;;187.80;76.45;;;;;;;;;;5034033;28;20026;-68
2021/03/03 09:36:24;;;;;;;171.77;75.50;;;;;;;;;;5031740;28;20087;-68
2021/03/03 09:38:54;;;;;;;144.95;69.18;;;;;;;;;;5034321;28;20029;-68
2021/03/03 09:41:20;;;;;;;175.75;75.68;;;;;;;;;;5030045;28;20563;-68
2021/03/03 09:43:59;;;;;;;162.48;74.78;;;;;;;;;;5024730;28;20415;-68
2021/03/03 09:46:25;;;;;;;198.35;75.38;;;;;;;;;;5029072;28;20029;-68
2021/03/03 09:48:51;;;;;;;191.13;78.78;;;;;;;;;;5017158;28;20498;-68
2021/03/03 09:51:17;;;;;;;232.15;79.45;;;;;;;;;;5027546;28;20030;-68
2021/03/03 09:53:56;;;;;;;204.77;81.03;;;;;;;;;;5027525;28;20057;-68
2021/03/03 09:56:25;;;;;;;198.18;87.53;;;;;;;;;;5025574;28;20026;-68
2021/03/03 09:58:52;;;;;;;237.95;86.97;;;;;;;;;;5023841;28;20030;-68
2021/03/03 10:01:18;;;;;;;187.25;77.38;;;;;;;;;;5023835;28;20476;-68
2021/03/03 10:03:44;;;;;;;186.52;74.05;;;;;;;;;;5024777;28;20029;-68
2021/03/03 10:06:10;;;;;;;189.55;75.13;;;;;;;;;;5023646;28;20067;-68
2021/03/03 10:08:36;;;;;;;175.35;71.85;;;;;;;;;;5012446;28;20025;-68
2021/03/03 10:11:02;;;;;;;168.88;71.90;;;;;;;;;;5021614;28;20418;-67
2021/03/03 10:13:28;;;;;;;145.18;66.82;;;;;;;;;;5017530;28;20102;-68
2021/03/03 10:15:55;;;;;;;145.52;67.35;;;;;;;;;;5017102;28;20025;-68
2021/03/03 10:18:22;;;;;;;150.98;68.10;;;;;;;;;;5016258;28;20077;-69
2021/03/03 10:20:52;;;;;;;158.93;68.10;;;;;;;;;;5016542;28;20028;-68
2021/03/03 10:23:19;;;;;;;145.20;63.65;;;;;;;;;;5014421;28;20034;-68
2021/03/03 10:25:46;;;;;;;138.15;64.00;;;;;;;;;;5017383;28;20036;-68
2021/03/03 10:28:16;;;;;;;137.43;60.90;;;;;;;;;;5016708;28;20048;-68
2021/03/03 10:30:44;;;;;;;150.40;66.07;;;;;;;;;;5014241;28;20064;-68
2021/03/03 10:33:11;;;;;;;154.75;66.85;;;;;;;;;;5014297;28;20100;-68
2021/03/03 10:35:47;;;;;;;154.40;64.35;;;;;;;;;;5014304;28;20102;-68
2021/03/03 10:38:14;;;;;;;136.70;60.33;;;;;;;;;;5014099;28;20029;-68
2021/03/03 10:40:42;;;;;;;129.15;62.10;;;;;;;;;;5012991;28;20025;-68
2021/03/03 10:43:17;;;;;;;135.77;61.90;;;;;;;;;;5015575;28;20345;-68
2021/03/03 10:45:44;;;;;;;137.18;60.10;;;;;;;;;;5019170;28;20026;-68
2021/03/03 10:48:25;;;;;;;142.60;64.18;;;;;;;;;;5014006;28;20026;-68
2021/03/03 10:50:51;;;;;;;148.60;63.83;;;;;;;;;;5015761;28;20011;-68
2021/03/03 10:53:17;;;;;;;134.60;58.97;;;;;;;;;;5012429;28;21078;-68
2021/03/03 10:55:44;;;;;;;126.95;58.15;;;;;;;;;;5014724;28;20033;-68
2021/03/03 10:58:13;;;;;;;130.73;56.20;;;;;;;;;;5016259;28;20040;-68
2021/03/03 11:00:56;;;;;;;142.10;60.63;;;;;;;;;;5014534;28;20017;-68
2021/03/03 11:03:22;;;;;;;127.38;58.75;;;;;;;;;;5014267;28;20061;-68
2021/03/03 11:05:52;;;;;;;125.82;57.33;;;;;;;;;;5017029;28;20095;-68
2021/03/03 11:08:18;;;;;;;132.57;53.58;;;;;;;;;;5013928;28;20037;-68
2021/03/03 11:10:44;;;;;;;130.73;56.03;;;;;;;;;;5011705;28;20095;-68
2021/03/03 11:13:10;;;;;;;142.10;56.55;;;;;;;;;;5015805;28;20025;-68
2021/03/03 11:15:39;;;;;;;130.77;58.63;;;;;;;;;;5016194;28;20030;-68
2021/03/03 11:18:05;;;;;;;135.55;56.25;;;;;;;;;;5016648;28;20033;-68
2021/03/03 11:20:31;;;;;;;130.52;55.42;;;;;;;;;;5009494;28;20435;-68
2021/03/03 11:22:57;;;;;;;124.18;55.90;;;;;;;;;;5016560;28;20026;-68
2021/03/03 11:25:23;;;;;;;122.90;56.72;;;;;;;;;;5016316;28;20510;-68
2021/03/03 11:27:49;;;;;;;130.90;55.30;;;;;;;;;;5013072;28;20101;-68
2021/03/03 11:30:15;;;;;;;134.40;55.40;;;;;;;;;;5014602;28;20041;-68
2021/03/03 11:32:41;;;;;;;122.20;55.22;;;;;;;;;;5016302;28;20514;-68
2021/03/03 11:35:08;;;;;;;133.10;56.65;;;;;;;;;;5017726;28;20026;-68
2021/03/03 11:37:34;;;;;;;122.45;54.50;;;;;;;;;;5027908;28;20029;-68
2021/03/03 11:40:00;;;;;;;130.90;53.42;;;;;;;;;;5021089;28;20057;-68
2021/03/03 11:42:26;;;;;;;131.68;57.60;;;;;;;;;;5027077;28;20264;-68
2021/03/03 11:44:52;;;;;;;136.48;55.95;;;;;;;;;;5014878;28;20015;-68
2021/03/03 11:47:18;;;;;;;126.47;51.92;;;;;;;;;;5017885;28;20038;-68
2021/03/03 11:49:44;;;;;;;143.02;60.78;;;;;;;;;;5012952;28;20029;-68
2021/03/03 11:52:10;;;;;;;143.50;59.75;;;;;;;;;;5014338;28;20160;-68
2021/03/03 11:54:36;;;;;;;122.55;55.08;;;;;;;;;;5010607;28;20468;-68
2021/03/03 11:57:02;;;;;;;123.43;55.72;;;;;;;;;;5011342;28;20501;-68
2021/03/03 11:59:28;;;;;;;115.13;54.42;;;;;;;;;;5012977;28;20025;-68
2021/03/03 12:01:55;;;;;;;114.43;51.72;;;;;;;;;;5026722;28;20029;-68
2021/03/03 12:04:21;;;;;;;116.20;55.25;;;;;;;;;;5023912;28;20087;-68
2021/03/03 12:06:47;;;;;;;118.85;53.10;;;;;;;;;;5027957;28;20554;-68
2021/03/03 12:09:13;;;;;;;132.18;54.88;;;;;;;;;;5024185;28;20045;-68
2021/03/03 12:11:39;;;;;;;114.63;51.67;;;;;;;;;;5032594;28;20048;-68
2021/03/03 12:14:05;;;;;;;112.32;51.45;;;;;;;;;;5020791;28;20045;-68
2021/03/03 12:16:31;;;;;;;113.30;53.88;;;;;;;;;;5022456;28;20029;-68
2021/03/03 12:18:57;;;;;;;111.30;52.15;;;;;;;;;;5016570;28;20033;-68
2021/03/03 12:21:24;;;;;;;108.05;48.08;;;;;;;;;;5026319;28;20022;-68
2021/03/03 12:23:50;;;;;;;97.82;47.10;;;;;;;;;;5027032;28;20131;-68
2021/03/03 12:26:16;;;;;;;106.78;49.83;;;;;;;;;;5021511;28;20038;-68
2021/03/03 12:28:42;;;;;;;97.30;46.85;;;;;;;;;;5021561;28;20356;-68
2021/03/03 12:31:10;;;;;;;88.63;42.53;;;;;;;;;;5025114;28;20033;-68
2021/03/03 12:33:36;;;;;;;98.30;44.25;;;;;;;;;;5024291;28;20030;-68
2021/03/03 12:36:02;;;;;;;84.50;43.83;;;;;;;;;;5027068;28;20026;-68
2021/03/03 12:38:28;;;;;;;89.55;45.30;;;;;;;;;;5017590;28;20439;-68
2021/03/03 12:40:54;;;;;;;89.95;44.38;;;;;;;;;;5026525;28;20021;-68
2021/03/03 12:43:20;;;;;;;87.80;39.67;;;;;;;;;;5020559;28;20060;-68
2021/03/03 12:45:46;;;;;;;87.40;42.55;;;;;;;;;;5024838;28;20059;-68
2021/03/03 12:48:12;;;;;;;103.32;46.70;;;;;;;;;;5030451;28;20037;-68
2021/03/03 12:50:38;;;;;;;107.63;45.15;;;;;;;;;;5023214;28;20109;-68
2021/03/03 12:53:04;;;;;;;104.25;44.80;;;;;;;;;;5030578;28;20045;-68
2021/03/03 12:55:30;;;;;;;109.75;48.42;;;;;;;;;;5032497;28;20124;-68
2021/03/03 12:57:56;;;;;;;107.70;46.72;;;;;;;;;;5032494;28;20025;-68
2021/03/03 13:00:22;;;;;;;99.05;45.53;;;;;;;;;;5023499;28;20026;-68
2021/03/03 13:02:48;;;;;;;110.07;45.90;;;;;;;;;;5033898;28;20025;-68
2021/03/03 13:05:15;;;;;;;107.30;48.60;;;;;;;;;;5033573;28;20041;-68
2021/03/03 13:07:41;;;;;;;114.35;47.30;;;;;;;;;;5035686;28;20618;-68
2021/03/03 13:10:08;;;;;;;117.28;50.35;;;;;;;;;;5028542;28;20052;-68
2021/03/03 13:12:34;;;;;;;102.97;46.25;;;;;;;;;;5033861;28;20044;-68
2021/03/03 13:15:00;;;;;;;108.75;47.83;;;;;;;;;;5028244;28;20075;-68
2021/03/03 13:17:26;;;;;;;95.28;45.05;;;;;;;;;;5029808;28;20034;-68
2021/03/03 13:19:52;;;;;;;93.80;43.55;;;;;;;;;;5033357;28;20013;-68
2021/03/03 13:22:18;;;;;;;116.57;53.17;;;;;;;;;;5031621;28;20095;-69
2021/03/03 13:24:44;;;;;;;106.70;48.58;;;;;;;;;;5027135;28;20013;-68
2021/03/03 13:27:10;;;;;;;100.82;47.28;;;;;;;;;;5023161;28;20487;-68
2021/03/03 13:29:37;;;;;;;103.50;46.33;;;;;;;;;;5012355;28;20124;-69
2021/03/03 13:32:09;;;;;;;98.78;47.40;;;;;;;;;;5030893;28;20531;-68
2021/03/03 13:34:35;;;;;;;;;;;;;;;;;;5031539;28;20057;-68
2021/03/03 13:37:01;;;;;;;102.45;47.72;;;;;;;;;;5029486;28;19967;-68
2021/03/03 13:39:27;;;;;;;93.80;46.33;;;;;;;;;;5022153;28;20038;-68
2021/03/03 13:41:53;;;;;;;87.20;41.72;;;;;;;;;;5039892;28;20087;-68
2021/03/03 13:44:19;;;;;;;89.85;42.47;;;;;;;;;;5030211;28;20032;-68
2021/03/03 13:46:45;;;;;;;93.78;45.45;;;;;;;;;;5033045;28;20044;-68
2021/03/03 13:49:11;;;;;;;92.93;46.45;;;;;;;;;;5029560;28;20196;-68
2021/03/03 13:51:37;;;;;;;93.45;43.88;;;;;;;;;;5043659;28;20091;-68
2021/03/03 13:54:03;;;;;;;87.47;41.13;;;;;;;;;;5044201;28;20033;-68
2021/03/03 13:56:29;;;;;;;98.85;43.25;;;;;;;;;;5028300;28;20026;-68
2021/03/03 13:58:55;;;;;;;85.75;40.10;;;;;;;;;;5035552;28;20013;-68
2021/03/03 14:01:21;;;;;;;80.93;40.22;;;;;;;;;;5022736;28;20063;-68
2021/03/03 14:03:47;;;;;;;82.80;41.05;;;;;;;;;;5015543;28;20403;-68
2021/03/03 14:06:13;;;;;;;88.85;44.55;;;;;;;;;;5026069;28;20595;-69
2021/03/03 14:08:39;;;;;;;92.50;41.95;;;;;;;;;;5037173;28;20048;-69
2021/03/03 14:11:05;;;;;;;86.20;42.25;;;;;;;;;;5033323;28;20068;-69
2021/03/03 14:13:32;;;;;;;95.15;43.67;;;;;;;;;;5024707;28;20030;-68